createdAt,value
2023-01-26T00:01:29.965Z,20.58
2023-01-26T00:03:57.532Z,19.75
2023-01-26T00:06:26.182Z,18.23
2023-01-26T00:08:54.872Z,22.00
2023-01-26T00:11:24.464Z,21.35
2023-01-26T00:13:51.754Z,20.00
2023-01-26T00:16:19.249Z,19.02
2023-01-26T00:18:46.289Z,22.17
2023-01-26T00:21:19.259Z,27.33
2023-01-26T00:23:46.795Z,31.08
2023-01-26T00:26:22.592Z,27.33
2023-01-26T00:28:49.785Z,22.92
2023-01-26T00:31:19.289Z,20.77
2023-01-26T00:33:46.154Z,19.55
2023-01-26T00:36:13.608Z,17.05
2023-01-26T00:38:41.331Z,16.63
2023-01-26T00:41:08.073Z,17.20
2023-01-26T00:43:34.975Z,16.75
2023-01-26T00:46:01.625Z,16.60
2023-01-26T00:48:28.337Z,13.95
2023-01-26T00:50:55.539Z,16.85
2023-01-26T00:53:22.254Z,15.27
2023-01-26T00:55:49.072Z,14.68
2023-01-26T00:58:15.817Z,12.48
2023-01-26T01:00:42.555Z,14.88
2023-01-26T01:03:09.472Z,15.93
2023-01-26T01:05:36.208Z,14.77
2023-01-26T01:08:03.792Z,15.20
2023-01-26T01:10:30.624Z,13.93
2023-01-26T01:12:57.280Z,17.60
2023-01-26T01:15:26.294Z,12.90
2023-01-26T01:17:53.035Z,14.55
2023-01-26T01:20:20.510Z,10.60
2023-01-26T01:22:47.343Z,12.20
2023-01-26T01:25:14.316Z,13.98
2023-01-26T01:27:41.046Z,21.38
2023-01-26T01:30:08.676Z,15.23
2023-01-26T01:32:42.007Z,15.05
2023-01-26T01:35:08.984Z,17.10
2023-01-26T01:37:36.873Z,13.38
2023-01-26T01:40:03.883Z,14.23
2023-01-26T01:42:30.609Z,11.93
2023-01-26T01:45:39.237Z,17.10
2023-01-26T01:48:11.311Z,13.40
2023-01-26T01:50:39.703Z,13.90
2023-01-26T01:53:11.486Z,11.60
2023-01-26T01:55:38.248Z,13.85
2023-01-26T01:58:06.280Z,12.43
2023-01-26T02:00:33.220Z,12.45
2023-01-26T02:03:33.844Z,19.25
2023-01-26T02:06:14.492Z,12.50
2023-01-26T02:08:46.472Z,10.75
2023-01-26T02:11:17.212Z,10.55
2023-01-26T02:13:46.627Z,15.27
2023-01-26T02:16:13.406Z,16.98
2023-01-26T02:18:40.228Z,15.25
2023-01-26T02:21:10.015Z,16.17
2023-01-26T02:23:48.434Z,15.57
2023-01-26T02:26:36.854Z,17.90
2023-01-26T02:29:07.483Z,14.55
2023-01-26T02:31:35.052Z,15.90
2023-01-26T02:34:01.828Z,15.40
2023-01-26T02:36:31.076Z,13.43
2023-01-26T02:39:15.538Z,12.45
2023-01-26T02:42:00.779Z,11.45
2023-01-26T02:44:27.930Z,14.82
2023-01-26T02:46:54.771Z,11.35
2023-01-26T02:49:39.931Z,9.88
2023-01-26T02:52:07.153Z,9.90
2023-01-26T02:54:52.661Z,9.27
2023-01-26T02:57:19.482Z,16.90
2023-01-26T02:59:46.320Z,13.93
2023-01-26T03:02:13.646Z,8.10
2023-01-26T03:04:40.544Z,14.48
2023-01-26T03:07:07.246Z,14.38
2023-01-26T03:09:33.963Z,11.95
2023-01-26T03:12:00.689Z,11.25
2023-01-26T03:14:27.412Z,10.10
2023-01-26T03:16:55.593Z,12.40
2023-01-26T03:19:40.865Z,12.48
2023-01-26T03:22:28.799Z,16.10
2023-01-26T03:25:14.285Z,12.38
2023-01-26T03:27:47.272Z,15.98
2023-01-26T03:30:19.208Z,11.95
2023-01-26T03:32:46.087Z,17.00
2023-01-26T03:35:16.015Z,13.32
2023-01-26T03:37:46.713Z,19.65
2023-01-26T03:40:32.370Z,17.63
2023-01-26T03:43:17.736Z,12.95
2023-01-26T03:46:03.264Z,13.85
2023-01-26T03:48:48.595Z,15.27
2023-01-26T03:51:34.209Z,12.20
2023-01-26T03:54:19.510Z,18.38
2023-01-26T03:56:46.254Z,13.00
2023-01-26T03:59:15.342Z,13.70
2023-01-26T04:02:05.218Z,12.70
2023-01-26T04:04:50.658Z,16.50
2023-01-26T04:07:37.694Z,12.95
2023-01-26T04:10:04.748Z,12.68
2023-01-26T04:12:31.448Z,14.68
2023-01-26T04:15:16.910Z,14.88
2023-01-26T04:18:02.283Z,16.45
2023-01-26T04:20:47.669Z,22.02
2023-01-26T04:23:21.091Z,19.40
2023-01-26T04:25:48.661Z,19.13
2023-01-26T04:28:15.959Z,13.70
2023-01-26T04:30:42.763Z,14.73
2023-01-26T04:33:09.509Z,14.20
2023-01-26T04:35:36.252Z,11.98
2023-01-26T04:38:03.002Z,16.85
2023-01-26T04:40:29.706Z,15.00
2023-01-26T04:42:56.406Z,14.40
2023-01-26T04:45:23.139Z,11.50
2023-01-26T04:47:50.915Z,12.38
2023-01-26T04:50:17.789Z,12.38
2023-01-26T04:52:44.543Z,11.57
2023-01-26T04:55:11.317Z,16.90
2023-01-26T04:57:38.095Z,11.52
2023-01-26T05:00:05.464Z,19.92
2023-01-26T05:02:32.253Z,11.85
2023-01-26T05:04:58.957Z,11.75
2023-01-26T05:07:25.645Z,10.85
2023-01-26T05:09:52.374Z,12.45
2023-01-26T05:12:34.116Z,11.95
2023-01-26T05:15:00.837Z,14.52
2023-01-26T05:17:27.547Z,13.15
2023-01-26T05:19:54.242Z,13.25
2023-01-26T05:22:20.940Z,12.73
2023-01-26T05:24:47.648Z,11.98
2023-01-26T05:27:23.645Z,10.60
2023-01-26T05:29:51.306Z,9.65
2023-01-26T05:32:18.092Z,9.57
2023-01-26T05:34:45.055Z,10.77
2023-01-26T05:37:14.545Z,18.45
2023-01-26T05:39:41.631Z,9.80
2023-01-26T05:42:08.505Z,13.63
2023-01-26T05:44:35.284Z,10.05
2023-01-26T05:47:02.056Z,9.20
2023-01-26T05:49:28.812Z,11.10
2023-01-26T05:51:55.880Z,9.68
2023-01-26T05:54:22.596Z,9.73
2023-01-26T05:56:49.443Z,10.52
2023-01-26T05:59:16.210Z,12.48
2023-01-26T06:01:42.969Z,8.75
2023-01-26T06:04:09.778Z,10.35
2023-01-26T06:06:36.556Z,7.53
2023-01-26T06:09:03.393Z,9.63
2023-01-26T06:11:32.153Z,11.05
2023-01-26T06:13:58.825Z,16.65
2023-01-26T06:16:25.613Z,10.60
2023-01-26T06:18:52.383Z,13.23
2023-01-26T06:21:19.231Z,12.57
2023-01-26T06:23:46.178Z,9.00
2023-01-26T06:26:12.964Z,10.77
2023-01-26T06:28:39.657Z,10.60
2023-01-26T06:31:07.853Z,15.75
2023-01-26T06:33:37.198Z,12.60
2023-01-26T06:36:12.540Z,12.05
2023-01-26T06:38:44.529Z,10.32
2023-01-26T06:41:11.293Z,12.45
2023-01-26T06:43:38.153Z,9.55
2023-01-26T06:46:05.994Z,9.40
2023-01-26T06:48:35.144Z,11.40
2023-01-26T06:51:15.452Z,12.52
2023-01-26T06:53:52.261Z,10.25
2023-01-26T06:56:19.510Z,14.90
2023-01-26T06:58:46.235Z,10.88
2023-01-26T07:01:24.865Z,11.25
2023-01-26T07:03:53.024Z,11.45
2023-01-26T07:06:19.959Z,13.13
2023-01-26T07:08:47.062Z,10.38
2023-01-26T07:11:14.832Z,12.38
2023-01-26T07:13:41.500Z,9.60
2023-01-26T07:16:11.410Z,8.85
2023-01-26T07:18:38.266Z,9.10
2023-01-26T07:21:18.369Z,10.20
2023-01-26T07:23:46.183Z,11.05
2023-01-26T07:26:13.807Z,10.48
2023-01-26T07:28:40.606Z,8.88
2023-01-26T07:31:08.972Z,12.15
2023-01-26T07:33:35.911Z,8.95
2023-01-26T07:36:03.980Z,9.75
2023-01-26T07:38:30.904Z,11.20
2023-01-26T07:40:58.194Z,18.30
2023-01-26T07:43:25.038Z,9.73
2023-01-26T07:45:53.783Z,8.05
2023-01-26T07:48:22.407Z,10.88
2023-01-26T07:50:49.542Z,9.60
2023-01-26T07:53:19.409Z,7.32
2023-01-26T07:55:47.177Z,10.50
2023-01-26T07:58:14.169Z,6.05
2023-01-26T08:00:40.975Z,8.88
2023-01-26T08:03:07.875Z,8.18
2023-01-26T08:05:37.044Z,6.80
2023-01-26T08:08:04.302Z,7.05
2023-01-26T08:10:31.933Z,6.45
2023-01-26T08:13:02.125Z,8.68
2023-01-26T08:15:29.258Z,7.50
2023-01-26T08:17:56.391Z,6.93
2023-01-26T08:20:23.541Z,8.23
2023-01-26T08:22:50.239Z,6.88
2023-01-26T08:25:17.056Z,9.50
2023-01-26T08:27:43.858Z,7.57
2023-01-26T08:30:11.683Z,9.27
2023-01-26T08:32:38.679Z,6.88
2023-01-26T08:35:05.829Z,6.00
2023-01-26T08:37:33.694Z,8.05
2023-01-26T08:40:00.495Z,7.93
2023-01-26T08:42:27.431Z,5.35
2023-01-26T08:44:54.210Z,6.68
2023-01-26T08:47:20.974Z,6.57
2023-01-26T08:49:47.729Z,8.40
2023-01-26T08:52:14.691Z,4.85
2023-01-26T08:54:41.670Z,6.13
2023-01-26T08:57:08.418Z,5.43
2023-01-26T08:59:35.169Z,6.45
2023-01-26T09:02:01.966Z,5.68
2023-01-26T09:04:28.771Z,7.45
2023-01-26T09:06:55.586Z,6.45
2023-01-26T09:09:22.385Z,6.32
2023-01-26T09:11:49.095Z,7.70
2023-01-26T09:14:15.856Z,8.90
2023-01-26T09:16:42.608Z,6.95
2023-01-26T09:19:09.370Z,5.55
2023-01-26T09:21:36.034Z,11.00
2023-01-26T09:24:02.948Z,5.55
2023-01-26T09:26:30.899Z,5.95
2023-01-26T09:28:57.723Z,4.03
2023-01-26T09:31:24.654Z,4.88
2023-01-26T09:33:51.989Z,8.45
2023-01-26T09:36:19.100Z,5.55
2023-01-26T09:38:46.036Z,4.85
2023-01-26T09:41:34.454Z,6.00
2023-01-26T09:44:08.852Z,4.50
2023-01-26T09:46:50.497Z,5.20
2023-01-26T09:49:23.505Z,4.55
2023-01-26T09:52:13.291Z,4.60
2023-01-26T09:54:41.742Z,6.65
2023-01-26T09:57:23.202Z,7.72
2023-01-26T09:59:58.474Z,5.38
2023-01-26T10:03:05.274Z,7.07
2023-01-26T10:05:56.805Z,6.47
2023-01-26T10:08:23.786Z,7.30
2023-01-26T10:10:57.819Z,7.28
2023-01-26T10:13:25.033Z,6.78
2023-01-26T10:16:00.870Z,6.40
2023-01-26T10:18:34.071Z,7.00
2023-01-26T10:21:04.894Z,5.78
2023-01-26T10:23:34.314Z,6.55
2023-01-26T10:26:22.076Z,5.38
2023-01-26T10:28:52.904Z,7.20
2023-01-26T10:31:25.566Z,6.43
2023-01-26T10:34:01.226Z,5.93
2023-01-26T10:36:30.890Z,4.25
2023-01-26T10:39:06.006Z,6.97
2023-01-26T10:41:33.075Z,6.90
2023-01-26T10:44:02.557Z,6.75
2023-01-26T10:46:30.958Z,7.82
2023-01-26T10:49:01.337Z,9.38
2023-01-26T10:51:33.386Z,6.28
2023-01-26T10:54:21.569Z,8.23
2023-01-26T10:56:50.469Z,9.55
2023-01-26T10:59:48.115Z,8.90
2023-01-26T11:02:14.784Z,12.77
2023-01-26T11:04:42.151Z,9.20
2023-01-26T11:07:40.010Z,8.25
2023-01-26T11:10:27.951Z,12.68
2023-01-26T11:13:13.498Z,13.13
2023-01-26T11:15:42.557Z,25.15
2023-01-26T11:18:56.145Z,13.73
2023-01-26T11:21:39.076Z,9.30
2023-01-26T11:24:29.396Z,8.40
2023-01-26T11:27:17.539Z,11.07
2023-01-26T11:30:02.919Z,8.43
2023-01-26T11:32:54.495Z,7.85
2023-01-26T11:35:29.912Z,7.68
2023-01-26T11:38:12.107Z,9.30
2023-01-26T11:40:53.814Z,10.63
2023-01-26T11:43:42.056Z,8.32
2023-01-26T11:46:36.659Z,8.30
2023-01-26T11:49:27.656Z,9.40
2023-01-26T11:52:19.623Z,9.60
2023-01-26T11:55:18.978Z,13.20
2023-01-26T11:58:01.586Z,13.88
2023-01-26T12:00:49.770Z,11.68
2023-01-26T12:03:33.751Z,10.00
2023-01-26T12:06:08.421Z,13.32
2023-01-26T12:08:41.421Z,14.77
2023-01-26T12:11:23.299Z,14.68
2023-01-26T12:13:56.806Z,11.55
2023-01-26T12:16:49.073Z,12.32
2023-01-26T12:19:35.896Z,11.65
2023-01-26T12:22:22.639Z,9.70
2023-01-26T12:25:18.047Z,12.10
2023-01-26T12:27:50.740Z,9.73
2023-01-26T12:30:31.145Z,14.20
2023-01-26T12:32:57.948Z,12.55
2023-01-26T12:35:49.377Z,12.55
2023-01-26T12:38:40.126Z,10.82
2023-01-26T12:41:29.331Z,10.93
2023-01-26T12:44:05.815Z,20.38
2023-01-26T12:46:38.855Z,18.73
2023-01-26T12:49:12.346Z,14.05
2023-01-26T12:51:44.126Z,18.77
2023-01-26T12:54:37.145Z,18.25
2023-01-26T12:57:07.858Z,20.35
2023-01-26T12:59:46.803Z,14.10
2023-01-26T13:02:34.128Z,14.60
2023-01-26T13:05:02.665Z,15.75
2023-01-26T13:07:38.742Z,12.07
2023-01-26T13:10:14.791Z,14.85
2023-01-26T13:13:21.240Z,12.40
2023-01-26T13:16:08.057Z,12.18
2023-01-26T13:18:52.550Z,11.43
2023-01-26T13:21:44.056Z,13.13
2023-01-26T13:24:16.707Z,9.73
2023-01-26T13:26:48.260Z,14.60
2023-01-26T13:29:33.408Z,13.40
2023-01-26T13:32:23.164Z,14.30
2023-01-26T13:34:54.446Z,12.25
2023-01-26T13:37:49.979Z,11.25
2023-01-26T13:40:36.393Z,15.05
2023-01-26T13:43:27.607Z,23.23
2023-01-26T13:46:06.364Z,16.88
2023-01-26T13:48:46.634Z,16.75
2023-01-26T13:51:30.964Z,13.75
2023-01-26T13:54:02.678Z,12.38
2023-01-26T13:56:33.572Z,23.20
2023-01-26T13:59:19.457Z,29.90
2023-01-26T14:01:53.089Z,18.17
2023-01-26T14:04:32.121Z,16.27
2023-01-26T14:07:07.433Z,14.30
2023-01-26T14:09:46.676Z,17.08
2023-01-26T14:12:22.788Z,15.07
2023-01-26T14:14:53.852Z,15.80
2023-01-26T14:17:26.630Z,22.60
2023-01-26T14:19:53.448Z,16.50
2023-01-26T14:22:22.280Z,17.75
2023-01-26T14:24:51.985Z,17.27
2023-01-26T14:27:27.310Z,15.38
2023-01-26T14:29:54.078Z,17.98
2023-01-26T14:32:25.396Z,16.08
2023-01-26T14:35:01.270Z,21.27
2023-01-26T14:37:29.058Z,18.27
2023-01-26T14:40:22.028Z,13.13
2023-01-26T14:42:51.368Z,14.27
2023-01-26T14:45:24.190Z,12.95
2023-01-26T14:47:53.362Z,19.77
2023-01-26T14:50:32.317Z,27.15
2023-01-26T14:53:01.342Z,18.33
2023-01-26T14:55:34.216Z,17.55
2023-01-26T14:58:03.288Z,17.27
2023-01-26T15:00:37.131Z,19.95
2023-01-26T15:03:14.987Z,17.08
2023-01-26T15:05:42.262Z,15.25
2023-01-26T15:08:24.065Z,14.95
2023-01-26T15:11:18.302Z,15.77
2023-01-26T15:13:49.106Z,13.70
2023-01-26T15:16:19.264Z,14.82
2023-01-26T15:18:57.194Z,16.83
2023-01-26T15:21:34.169Z,16.42
2023-01-26T15:24:01.003Z,17.02
2023-01-26T15:26:29.703Z,18.77
2023-01-26T15:28:58.997Z,15.10
2023-01-26T15:31:37.137Z,19.00
2023-01-26T15:34:04.753Z,17.30
2023-01-26T15:36:50.301Z,17.17
2023-01-26T15:39:19.144Z,15.23
2023-01-26T15:42:01.622Z,20.25
2023-01-26T15:44:28.428Z,16.58
2023-01-26T15:46:56.681Z,18.23
2023-01-26T15:49:23.463Z,14.85
2023-01-26T15:51:51.985Z,14.57
2023-01-26T15:54:19.866Z,14.98
2023-01-26T15:56:46.557Z,13.60
2023-01-26T15:59:13.221Z,16.02
2023-01-26T16:01:40.223Z,21.15
2023-01-26T16:04:08.863Z,17.10
2023-01-26T16:06:35.595Z,20.00
2023-01-26T16:09:02.394Z,18.48
2023-01-26T16:11:33.575Z,13.68
2023-01-26T16:14:04.164Z,17.63
2023-01-26T16:16:32.501Z,17.80
2023-01-26T16:18:59.654Z,15.55
2023-01-26T16:21:31.269Z,16.52
2023-01-26T16:23:58.140Z,18.35
2023-01-26T16:26:26.384Z,18.90
2023-01-26T16:28:53.213Z,17.42
2023-01-26T16:31:20.005Z,19.92
2023-01-26T16:33:48.150Z,23.48
2023-01-26T16:36:17.095Z,24.65
2023-01-26T16:38:44.211Z,28.10
2023-01-26T16:41:34.231Z,21.83
2023-01-26T16:44:02.326Z,19.27
2023-01-26T16:46:30.677Z,20.90
2023-01-26T16:48:57.649Z,23.20
2023-01-26T16:51:26.893Z,22.88
2023-01-26T16:53:55.436Z,27.48
2023-01-26T16:56:23.457Z,28.95
2023-01-26T16:58:50.258Z,20.55
2023-01-26T17:01:25.336Z,18.10
2023-01-26T17:03:52.121Z,51.53
2023-01-26T17:06:19.826Z,40.88
2023-01-26T17:08:47.159Z,42.72
2023-01-26T17:11:23.401Z,20.00
2023-01-26T17:13:51.062Z,27.33
2023-01-26T17:16:29.342Z,19.67
2023-01-26T17:18:56.588Z,22.70
2023-01-26T17:21:24.184Z,23.48
2023-01-26T17:23:56.772Z,25.15
2023-01-26T17:26:23.727Z,27.88
2023-01-26T17:28:54.464Z,22.15
2023-01-26T17:31:22.709Z,32.67
2023-01-26T17:33:50.668Z,26.10
2023-01-26T17:36:19.177Z,22.13
2023-01-26T17:38:47.727Z,22.25
2023-01-26T17:41:15.174Z,19.85
2023-01-26T17:43:41.910Z,25.85
2023-01-26T17:46:17.579Z,28.15
2023-01-26T17:48:45.465Z,23.38
2023-01-26T17:51:18.782Z,26.50
2023-01-26T17:53:47.256Z,20.95
2023-01-26T17:56:16.468Z,19.00
2023-01-26T17:58:46.742Z,20.35
2023-01-26T18:01:13.565Z,24.65
2023-01-26T18:03:42.470Z,26.90
2023-01-26T18:06:10.385Z,24.60
2023-01-26T18:08:37.841Z,29.75
2023-01-26T18:11:07.467Z,27.42
2023-01-26T18:13:34.389Z,64.07
2023-01-26T18:16:01.600Z,43.25
2023-01-26T18:18:29.829Z,24.77
2023-01-26T18:20:56.981Z,30.40
2023-01-26T18:23:24.439Z,26.70
2023-01-26T18:25:51.486Z,28.90
2023-01-26T18:28:18.283Z,22.23
2023-01-26T18:30:45.129Z,33.50
2023-01-26T18:33:11.898Z,19.90
2023-01-26T18:35:38.697Z,27.60
2023-01-26T18:38:05.412Z,23.38
2023-01-26T18:40:32.190Z,22.80
2023-01-26T18:42:58.966Z,28.65
2023-01-26T18:45:25.824Z,27.90
2023-01-26T18:47:52.549Z,33.20
2023-01-26T18:50:19.387Z,26.42
2023-01-26T18:52:46.075Z,24.65
2023-01-26T18:55:13.137Z,26.40
2023-01-26T18:57:40.185Z,23.42
2023-01-26T19:00:09.320Z,27.42
2023-01-26T19:02:38.655Z,20.40
2023-01-26T19:05:09.083Z,24.50
2023-01-26T19:07:35.954Z,22.88
2023-01-26T19:10:04.883Z,23.60
2023-01-26T19:12:31.812Z,26.10
2023-01-26T19:14:58.622Z,19.27
2023-01-26T19:17:25.633Z,26.15
2023-01-26T19:19:52.423Z,18.30
2023-01-26T19:22:19.242Z,21.00
2023-01-26T19:24:46.011Z,15.40
2023-01-26T19:27:13.506Z,23.98
2023-01-26T19:29:40.244Z,21.52
2023-01-26T19:32:07.037Z,17.15
2023-01-26T19:34:35.021Z,24.40
2023-01-26T19:37:01.780Z,21.40
2023-01-26T19:39:28.532Z,25.05
2023-01-26T19:41:55.231Z,20.77
2023-01-26T19:44:21.988Z,21.92
2023-01-26T19:46:51.413Z,20.35
2023-01-26T19:49:18.869Z,18.77
2023-01-26T19:51:45.577Z,22.15
2023-01-26T19:54:13.730Z,19.52
2023-01-26T19:56:40.642Z,21.30
2023-01-26T19:59:10.683Z,22.45
2023-01-26T20:01:37.455Z,19.88
2023-01-26T20:04:11.663Z,16.20
2023-01-26T20:06:38.509Z,17.63
2023-01-26T20:09:07.620Z,18.02
2023-01-26T20:11:35.022Z,17.38
2023-01-26T20:14:04.711Z,16.50
2023-01-26T20:16:33.255Z,19.80
2023-01-26T20:19:00.147Z,19.55
2023-01-26T20:21:28.248Z,22.63
2023-01-26T20:23:56.154Z,21.73
2023-01-26T20:26:25.507Z,18.58
2023-01-26T20:28:54.010Z,18.17
2023-01-26T20:31:23.825Z,18.65
2023-01-26T20:33:51.911Z,20.67
2023-01-26T20:36:21.433Z,15.88
2023-01-26T20:38:49.541Z,20.90
2023-01-26T20:41:20.406Z,18.40
2023-01-26T20:44:03.093Z,20.52
2023-01-26T20:46:33.392Z,19.60
2023-01-26T20:49:00.656Z,16.70
2023-01-26T20:51:31.254Z,16.92
2023-01-26T20:53:58.378Z,18.65
2023-01-26T20:56:26.000Z,14.65
2023-01-26T20:58:54.200Z,16.27
2023-01-26T21:01:21.926Z,16.30
2023-01-26T21:03:49.301Z,15.75
2023-01-26T21:06:21.409Z,19.75
2023-01-26T21:08:49.920Z,21.50
2023-01-26T21:11:17.576Z,17.55
2023-01-26T21:13:45.330Z,15.45
2023-01-26T21:16:16.453Z,14.85
2023-01-26T21:18:43.957Z,14.30
2023-01-26T21:21:13.846Z,15.38
2023-01-26T21:23:41.067Z,15.88
2023-01-26T21:26:11.961Z,16.92
2023-01-26T21:28:38.756Z,14.05
2023-01-26T21:31:08.313Z,15.13
2023-01-26T21:33:38.537Z,15.05
2023-01-26T21:36:07.204Z,13.10
2023-01-26T21:38:39.326Z,13.80
2023-01-26T21:41:36.509Z,16.85
2023-01-26T21:44:11.810Z,11.07
2023-01-26T21:46:38.911Z,21.52
2023-01-26T21:49:06.375Z,13.43
2023-01-26T21:51:53.216Z,18.10
2023-01-26T21:54:20.245Z,16.20
2023-01-26T21:56:46.986Z,13.98
2023-01-26T21:59:15.615Z,17.15
2023-01-26T22:01:45.204Z,15.68
2023-01-26T22:04:15.500Z,13.85
2023-01-26T22:06:42.659Z,16.50
2023-01-26T22:09:11.605Z,15.38
2023-01-26T22:11:39.666Z,13.40
2023-01-26T22:14:12.059Z,13.93
2023-01-26T22:16:38.858Z,17.33
2023-01-26T22:19:05.601Z,14.90
2023-01-26T22:21:33.399Z,15.32
2023-01-26T22:24:00.253Z,16.10
2023-01-26T22:26:27.086Z,13.40
2023-01-26T22:28:55.935Z,17.63
2023-01-26T22:31:27.143Z,14.32
2023-01-26T22:33:55.794Z,16.33
2023-01-26T22:36:23.729Z,18.35
2023-01-26T22:38:52.097Z,16.20
2023-01-26T22:41:24.993Z,12.18
2023-01-26T22:43:54.315Z,18.63
2023-01-26T22:46:22.841Z,12.32
2023-01-26T22:48:50.452Z,10.77
2023-01-26T22:51:20.459Z,12.80
2023-01-26T22:53:49.745Z,13.13
2023-01-26T22:56:17.306Z,10.90
2023-01-26T22:58:57.216Z,11.20
2023-01-26T23:01:26.212Z,12.43
2023-01-26T23:03:54.678Z,9.90
2023-01-26T23:06:22.014Z,13.85
2023-01-26T23:08:48.817Z,10.23
2023-01-26T23:11:18.593Z,12.90
2023-01-26T23:13:46.766Z,7.07
2023-01-26T23:16:14.053Z,12.10
2023-01-26T23:18:41.459Z,8.57
2023-01-26T23:21:09.185Z,10.18
2023-01-26T23:23:36.280Z,9.40
2023-01-26T23:26:03.436Z,12.70
2023-01-26T23:28:35.948Z,15.95
2023-01-26T23:31:03.106Z,13.38
2023-01-26T23:33:31.763Z,16.23
2023-01-26T23:35:59.267Z,13.02
2023-01-26T23:38:27.846Z,12.20
2023-01-26T23:40:55.085Z,15.60
2023-01-26T23:43:22.187Z,14.02
2023-01-26T23:45:50.481Z,12.75
2023-01-26T23:48:17.638Z,14.50
2023-01-26T23:50:44.689Z,16.52
2023-01-26T23:53:12.027Z,15.95
2023-01-26T23:55:42.993Z,12.00
2023-01-26T23:58:10.407Z,15.95
